Time;durP1;ratioP1;P1;durP2;ratioP2;P2;SDS_P1;SDS_P2;PMS_P1;PMS_P2;Temp;Humidity;BMP_temperature;BMP_pressure;BME280_temperature;BME280_humidity;BME280_pressure;Samples;Min_cycle;Max_cycle;Signal;HPM_P1;HPM_P2
2023/03/28 00:01:40;;;;;;;;;;;6.20;89.40;;;;;;5037097;28;20414;-75
2023/03/28 00:04:10;;;;;;;;;;;6.20;89.60;;;;;;5035676;28;19940;-74
2023/03/28 00:06:38;;;;;;;;;;;6.10;89.70;;;;;;5041640;28;19928;-75
2023/03/28 00:09:05;;;;;;;;;;;6.10;89.70;;;;;;5025881;28;19940;-78
2023/03/28 00:11:31;;;;;;;;;;;6.10;89.80;;;;;;5019254;28;21588;-75
2023/03/28 00:14:00;;;;;;;;;;;6.00;89.90;;;;;;5030039;28;19933;-78
2023/03/28 00:16:30;;;;;;;;;;;6.10;90.00;;;;;;5025779;28;19924;-77
2023/03/28 00:18:59;;;;;;;;;;;6.10;90.00;;;;;;5050152;28;19943;-79
2023/03/28 00:21:28;;;;;;;;;;;6.00;90.00;;;;;;5049212;28;20761;-76
2023/03/28 00:24:00;;;;;;;;;;;6.00;90.00;;;;;;5032231;28;19933;-77
2023/03/28 00:26:27;;;;;;;;;;;5.90;89.90;;;;;;5029617;28;19933;-78
2023/03/28 00:28:55;;;;;;;;;;;5.90;90.00;;;;;;5034097;28;20531;-77
2023/03/28 00:31:22;;;;;;;;;;;5.90;89.90;;;;;;5034542;28;19936;-75
2023/03/28 00:33:48;;;;;;;;;;;5.90;89.70;;;;;;5027100;28;19937;-76
2023/03/28 00:36:17;;;;;;;;;;;5.90;89.70;;;;;;5024185;28;21454;-76
2023/03/28 00:38:43;;;;;;;;;;;5.90;89.70;;;;;;5026004;28;20803;-79
2023/03/28 00:41:14;;;;;;;;;;;5.80;89.60;;;;;;5024473;28;19929;-78
2023/03/28 00:43:42;;;;;;;;;;;5.80;89.50;;;;;;5033996;28;19929;-75
2023/03/28 00:46:12;;;;;;;;;;;5.80;89.50;;;;;;5025018;28;19933;-77
2023/03/28 00:48:40;;;;;;;;;;;5.80;89.60;;;;;;5020239;28;19932;-80
2023/03/28 00:51:07;;;;;;;;;;;5.80;89.60;;;;;;5018517;28;19933;-76
2023/03/28 00:53:35;;;;;;;;;;;5.70;89.50;;;;;;5025234;28;19928;-76
2023/03/28 00:56:03;;;;;;;;;;;5.70;89.50;;;;;;5038469;28;19932;-76
2023/03/28 00:58:34;;;;;;;;;;;5.70;89.60;;;;;;5035574;28;20020;-78
2023/03/28 01:01:00;;;;;;;;;;;5.70;89.50;;;;;;5024843;28;19933;-78
2023/03/28 01:03:29;;;;;;;;;;;5.70;89.60;;;;;;5019444;28;19937;-77
2023/03/28 01:08:59;;;;;;;;;;;5.70;89.40;;;;;;5039706;28;19990;-79
2023/03/28 01:11:26;;;;;;;;;;;5.60;89.20;;;;;;5030566;28;20002;-79
2023/03/28 01:13:55;;;;;;;;;;;5.60;89.20;;;;;;5047997;28;19939;-76
2023/03/28 01:16:21;;;;;;;;;;;5.60;89.30;;;;;;5044413;28;19931;-79
2023/03/28 01:18:50;;;;;;;;;;;5.60;89.30;;;;;;5042498;28;19932;-78
2023/03/28 01:21:39;;;;;;;;;;;5.60;89.30;;;;;;5046445;28;19932;-79
2023/03/28 01:24:23;;;;;;;;;;;5.50;89.30;;;;;;5043976;28;19932;-76
2023/03/28 01:26:52;;;;;;;;;;;5.50;89.40;;;;;;5038868;28;19932;-77
2023/03/28 01:29:27;;;;;;;;;;;5.50;89.40;;;;;;5044345;28;19928;-78
2023/03/28 01:32:08;;;;;;;;;;;5.50;89.40;;;;;;5046813;28;20447;-78
2023/03/28 01:34:50;;;;;;;;;;;5.50;89.40;;;;;;4997266;28;19953;-78
2023/03/28 01:37:25;;;;;;;;;;;5.40;89.30;;;;;;5039311;28;19936;-79
2023/03/28 01:40:04;;;;;;;;;;;5.40;89.30;;;;;;5044308;28;20315;-79
2023/03/28 01:42:35;;;;;;;;;;;5.40;89.30;;;;;;5046941;28;20002;-78
2023/03/28 01:45:07;;;;;;;;;;;5.40;89.30;;;;;;5050113;28;20759;-78
2023/03/28 01:47:36;;;;;;;;;;;5.40;89.10;;;;;;5047354;28;19929;-76
2023/03/28 01:50:07;;;;;;;;;;;5.40;89.20;;;;;;5043426;28;19928;-78
2023/03/28 01:52:38;;;;;;;;;;;5.40;89.20;;;;;;5047981;28;19928;-77
2023/03/28 01:55:06;;;;;;;;;;;5.30;89.20;;;;;;5037550;28;19935;-79
2023/03/28 01:57:37;;;;;;;;;;;5.30;89.10;;;;;;5045795;28;19928;-78
2023/03/28 02:00:11;;;;;;;;;;;5.30;89.00;;;;;;5036093;28;19929;-78
2023/03/28 02:02:39;;;;;;;;;;;5.30;89.00;;;;;;5039733;28;19928;-78
2023/03/28 02:05:07;;;;;;;;;;;5.30;88.90;;;;;;5050895;28;19932;-78
2023/03/28 02:07:34;;;;;;;;;;;5.30;89.00;;;;;;5043728;28;20464;-77
2023/03/28 02:10:04;;;;;;;;;;;5.30;89.00;;;;;;5036280;28;19928;-79
2023/03/28 02:12:35;;;;;;;;;;;5.20;89.00;;;;;;5016106;28;19933;-77
2023/03/28 02:15:03;;;;;;;;;;;5.20;89.00;;;;;;5014520;28;19933;-78
2023/03/28 02:17:32;;;;;;;;;;;5.10;89.00;;;;;;5014370;28;19936;-78
2023/03/28 02:20:07;;;;;;;;;;;5.20;89.20;;;;;;5016558;28;19939;-77
2023/03/28 02:22:35;;;;;;;;;;;5.20;90.00;;;;;;5016193;28;19929;-77
2023/03/28 02:25:04;;;;;;;;;;;5.10;89.20;;;;;;5016898;28;19933;-78
2023/03/28 02:27:33;;;;;;;;;;;5.10;89.20;;;;;;5016676;28;20006;-78
2023/03/28 02:29:59;;;;;;;;;;;5.10;89.10;;;;;;5016859;28;19945;-75
2023/03/28 02:32:26;;;;;;;;;;;5.10;89.20;;;;;;5014743;28;19929;-79
2023/03/28 02:34:54;;;;;;;;;;;5.10;89.10;;;;;;5015718;28;19929;-78
2023/03/28 02:37:28;;;;;;;;;;;5.00;89.10;;;;;;5015607;28;19936;-79
2023/03/28 02:40:02;;;;;;;;;;;5.00;89.10;;;;;;5015606;28;19940;-78
2023/03/28 02:42:36;;;;;;;;;;;5.00;89.20;;;;;;5014743;28;19929;-77
2023/03/28 02:45:12;;;;;;;;;;;5.00;89.30;;;;;;5016154;28;20433;-78
2023/03/28 02:47:44;;;;;;;;;;;5.00;89.40;;;;;;5015555;28;19933;-78
2023/03/28 02:50:17;;;;;;;;;;;5.00;89.40;;;;;;5014873;28;22512;-75
2023/03/28 02:52:50;;;;;;;;;;;4.90;89.40;;;;;;5014758;28;19933;-75
2023/03/28 02:55:20;;;;;;;;;;;4.90;89.40;;;;;;5014086;28;19937;-77
2023/03/28 02:57:50;;;;;;;;;;;4.90;89.50;;;;;;5013354;28;21721;-77
2023/03/28 03:00:18;;;;;;;;;;;4.90;89.60;;;;;;5010871;28;19936;-77
2023/03/28 03:02:46;;;;;;;;;;;4.90;89.70;;;;;;5012502;28;19944;-78
2023/03/28 03:05:13;;;;;;;;;;;4.90;89.80;;;;;;5015688;28;19933;-79
2023/03/28 03:07:40;;;;;;;;;;;4.90;89.80;;;;;;5013576;28;19933;-78
2023/03/28 03:10:08;;;;;;;;;;;4.90;89.90;;;;;;5023963;28;19928;-79
2023/03/28 03:12:35;;;;;;;;;;;4.90;90.00;;;;;;5050488;28;20024;-78
2023/03/28 03:15:03;;;;;;;;;;;4.80;90.00;;;;;;5044850;28;19983;-79
2023/03/28 03:17:29;;;;;;;;;;;4.80;90.00;;;;;;5036909;28;20018;-79
2023/03/28 03:19:56;;;;;;;;;;;4.80;90.00;;;;;;5036032;28;19940;-78
2023/03/28 03:22:23;;;;;;;;;;;4.80;90.00;;;;;;5039101;28;20314;-78
2023/03/28 03:24:50;;;;;;;;;;;4.80;90.00;;;;;;5042154;28;19936;-79
2023/03/28 03:27:17;;;;;;;;;;;4.70;90.00;;;;;;5050044;28;19975;-78
2023/03/28 03:29:43;;;;;;;;;;;4.70;90.10;;;;;;5046437;28;20059;-79
2023/03/28 03:32:11;;;;;;;;;;;4.70;90.10;;;;;;5041889;28;19929;-77
2023/03/28 03:34:40;;;;;;;;;;;4.70;90.10;;;;;;5039162;28;19928;-76
2023/03/28 03:37:07;;;;;;;;;;;4.70;90.10;;;;;;5057942;28;20553;-77
2023/03/28 03:39:34;;;;;;;;;;;4.70;90.20;;;;;;5041373;28;20442;-78
2023/03/28 03:42:01;;;;;;;;;;;4.70;90.20;;;;;;5046101;28;20022;-78
2023/03/28 03:44:28;;;;;;;;;;;4.60;90.20;;;;;;5039809;28;19929;-79
2023/03/28 03:46:55;;;;;;;;;;;4.60;90.20;;;;;;5039086;28;19935;-79
2023/03/28 03:49:23;;;;;;;;;;;4.60;90.30;;;;;;5038445;28;20466;-78
2023/03/28 03:51:49;;;;;;;;;;;4.60;90.30;;;;;;5037011;28;20386;-78
2023/03/28 03:54:16;;;;;;;;;;;4.50;90.30;;;;;;5039800;28;19940;-79
2023/03/28 03:56:43;;;;;;;;;;;4.50;90.30;;;;;;5040080;28;19936;-79
2023/03/28 03:59:09;;;;;;;;;;;4.50;90.30;;;;;;5032845;28;19933;-77
2023/03/28 04:01:38;;;;;;;;;;;4.50;90.30;;;;;;5038312;28;19929;-77
2023/03/28 04:04:06;;;;;;;;;;;4.50;90.30;;;;;;5038115;28;19933;-77
2023/03/28 04:06:34;;;;;;;;;;;4.50;90.40;;;;;;5039914;28;19939;-77
2023/03/28 04:09:00;;;;;;;;;;;4.40;90.30;;;;;;5036213;28;19929;-78
2023/03/28 04:11:27;;;;;;;;;;;4.40;90.40;;;;;;5040129;28;20493;-77
2023/03/28 04:13:53;;;;;;;;;;;4.40;90.40;;;;;;5043715;28;20382;-78
2023/03/28 04:16:20;;;;;;;;;;;4.40;90.40;;;;;;5047342;28;19935;-77
2023/03/28 04:18:49;;;;;;;;;;;4.40;90.40;;;;;;5046009;28;20029;-78
2023/03/28 04:21:16;;;;;;;;;;;4.40;90.40;;;;;;5052143;28;19963;-78
2023/03/28 04:23:47;;;;;;;;;;;4.40;90.50;;;;;;5051853;28;19936;-78
2023/03/28 04:26:14;;;;;;;;;;;4.30;90.50;;;;;;5046111;28;19933;-78
2023/03/28 04:28:42;;;;;;;;;;;4.30;90.50;;;;;;5044587;28;20006;-77
2023/03/28 04:31:10;;;;;;;;;;;4.30;90.50;;;;;;5038931;28;19936;-78
2023/03/28 04:33:37;;;;;;;;;;;4.30;90.50;;;;;;5045394;28;19996;-79
2023/03/28 04:36:04;;;;;;;;;;;4.30;90.50;;;;;;5047330;28;19940;-78
2023/03/28 04:38:35;;;;;;;;;;;4.30;90.60;;;;;;5052257;28;19932;-78
2023/03/28 04:41:04;;;;;;;;;;;4.30;90.60;;;;;;5042983;28;19990;-79
2023/03/28 04:43:31;;;;;;;;;;;4.20;90.60;;;;;;5045339;28;20031;-78
2023/03/28 04:45:58;;;;;;;;;;;4.20;90.60;;;;;;5043483;28;19940;-78
2023/03/28 04:48:26;;;;;;;;;;;4.20;90.60;;;;;;5040286;28;19936;-78
2023/03/28 04:50:53;;;;;;;;;;;4.20;90.60;;;;;;5040451;28;19933;-78
2023/03/28 04:53:20;;;;;;;;;;;4.20;90.60;;;;;;5048069;28;19961;-78
2023/03/28 04:55:49;;;;;;;;;;;4.10;90.60;;;;;;5048832;28;20350;-78
2023/03/28 04:58:17;;;;;;;;;;;4.10;90.70;;;;;;5040401;28;19925;-79
2023/03/28 05:00:44;;;;;;;;;;;4.10;90.70;;;;;;5042953;28;19932;-78
2023/03/28 05:03:12;;;;;;;;;;;4.10;90.70;;;;;;5036844;28;19939;-78
2023/03/28 05:05:38;;;;;;;;;;;4.10;90.80;;;;;;5044686;28;20703;-77
2023/03/28 05:08:05;;;;;;;;;;;4.10;90.80;;;;;;5045352;28;20390;-79
2023/03/28 05:10:32;;;;;;;;;;;4.00;90.70;;;;;;5043151;28;20433;-78
2023/03/28 05:12:58;;;;;;;;;;;4.00;90.80;;;;;;5050395;28;19928;-79
2023/03/28 05:15:26;;;;;;;;;;;4.00;90.80;;;;;;5035753;28;19936;-78
2023/03/28 05:17:53;;;;;;;;;;;3.70;88.20;;;;;;5037794;28;19932;-76
2023/03/28 05:20:19;;;;;;;;;;;3.50;89.20;;;;;;5050583;28;19932;-78
2023/03/28 05:22:46;;;;;;;;;;;3.50;90.00;;;;;;5037146;28;19928;-78
2023/03/28 05:25:13;;;;;;;;;;;3.50;90.20;;;;;;5038653;28;19920;-78
2023/03/28 05:27:40;;;;;;;;;;;3.50;90.30;;;;;;5043065;28;19940;-76
2023/03/28 05:30:08;;;;;;;;;;;3.50;90.30;;;;;;5046656;28;20661;-78
2023/03/28 05:32:36;;;;;;;;;;;3.60;90.30;;;;;;5040437;28;19944;-77
2023/03/28 05:35:03;;;;;;;;;;;3.60;90.30;;;;;;5041387;28;20051;-71
2023/03/28 05:37:30;;;;;;;;;;;3.60;90.30;;;;;;5052922;28;19931;-72
2023/03/28 05:39:56;;;;;;;;;;;3.60;90.30;;;;;;5041532;28;19931;-74
2023/03/28 05:42:23;;;;;;;;;;;3.70;90.30;;;;;;5049840;28;19936;-72
2023/03/28 05:44:49;;;;;;;;;;;3.70;90.30;;;;;;5048501;28;19933;-73
2023/03/28 05:47:17;;;;;;;;;;;3.70;90.30;;;;;;5040722;28;19936;-74
2023/03/28 05:49:45;;;;;;;;;;;3.70;90.30;;;;;;5051584;28;19925;-72
2023/03/28 05:52:12;;;;;;;;;;;3.70;90.30;;;;;;5049259;28;19924;-72
2023/03/28 05:54:38;;;;;;;;;;;3.70;90.30;;;;;;5038579;28;20370;-72
2023/03/28 05:57:05;;;;;;;;;;;3.70;90.30;;;;;;5044553;28;20465;-71
2023/03/28 05:59:32;;;;;;;;;;;3.70;90.30;;;;;;5043241;28;20562;-75
2023/03/28 06:02:00;;;;;;;;;;;3.60;90.30;;;;;;5049296;28;19924;-72
2023/03/28 06:04:26;;;;;;;;;;;3.60;90.30;;;;;;5046914;28;19930;-74
2023/03/28 06:06:54;;;;;;;;;;;3.60;90.30;;;;;;5044681;28;19925;-70
2023/03/28 06:09:21;;;;;;;;;;;3.60;90.30;;;;;;5035502;28;19933;-76
2023/03/28 06:11:47;;;;;;;;;;;3.60;90.40;;;;;;5055256;28;19925;-74
2023/03/28 06:14:14;;;;;;;;;;;3.60;90.30;;;;;;5037749;28;19925;-72
2023/03/28 06:16:41;;;;;;;;;;;3.60;90.30;;;;;;5046895;28;20801;-73
2023/03/28 06:19:07;;;;;;;;;;;3.60;90.30;;;;;;5043611;28;21107;-73
2023/03/28 06:21:34;;;;;;;;;;;3.60;90.30;;;;;;5047631;28;20732;-76
2023/03/28 06:24:01;;;;;;;;;;;3.60;90.30;;;;;;5052296;28;19932;-77
2023/03/28 06:26:28;;;;;;;;;;;3.50;90.30;;;;;;5049778;28;19928;-79
2023/03/28 06:28:55;;;;;;;;;;;3.60;90.40;;;;;;5046029;28;19935;-78
2023/03/28 06:31:21;;;;;;;;;;;3.60;90.30;;;;;;5046747;28;19928;-77
2023/03/28 06:33:48;;;;;;;;;;;3.60;90.40;;;;;;5040011;28;19929;-78
2023/03/28 06:36:15;;;;;;;;;;;3.60;90.40;;;;;;5044810;28;19933;-75
2023/03/28 06:38:41;;;;;;;;;;;3.50;90.50;;;;;;5046011;28;20761;-75
2023/03/28 06:41:09;;;;;;;;;;;3.50;90.70;;;;;;5034988;28;20469;-76
2023/03/28 06:43:36;;;;;;;;;;;3.50;90.40;;;;;;5041307;28;19928;-76
2023/03/28 06:46:02;;;;;;;;;;;3.50;90.40;;;;;;5045587;28;19955;-78
2023/03/28 06:48:30;;;;;;;;;;;3.50;90.50;;;;;;5043319;28;20630;-78
2023/03/28 06:50:57;;;;;;;;;;;3.50;90.50;;;;;;5042673;28;20019;-77
2023/03/28 06:53:24;;;;;;;;;;;3.50;90.50;;;;;;5045003;28;19924;-73
2023/03/28 06:55:51;;;;;;;;;;;3.50;90.50;;;;;;5046711;28;19931;-74
2023/03/28 06:58:19;;;;;;;;;;;3.50;90.50;;;;;;5044218;28;19935;-75
2023/03/28 07:00:45;;;;;;;;;;;3.50;90.50;;;;;;5032020;28;19936;-73
2023/03/28 07:03:12;;;;;;;;;;;3.50;90.50;;;;;;5039695;28;19964;-74
2023/03/28 07:05:39;;;;;;;;;;;3.50;90.50;;;;;;5051198;28;19928;-74
2023/03/28 07:08:06;;;;;;;;;;;3.50;90.50;;;;;;5046325;28;20533;-72
2023/03/28 07:10:32;;;;;;;;;;;3.50;90.50;;;;;;5047482;28;19928;-72
2023/03/28 07:12:59;;;;;;;;;;;3.50;90.50;;;;;;5048285;28;20351;-74
2023/03/28 07:15:27;;;;;;;;;;;3.50;90.60;;;;;;5044114;28;20315;-74
2023/03/28 07:17:53;;;;;;;;;;;3.50;90.60;;;;;;5046426;28;19963;-72
2023/03/28 07:20:20;;;;;;;;;;;3.50;90.60;;;;;;5045824;28;21028;-74
2023/03/28 07:22:47;;;;;;;;;;;3.50;90.60;;;;;;5044586;28;20318;-73
2023/03/28 07:25:14;;;;;;;;;;;3.50;90.60;;;;;;5045756;28;20673;-72
2023/03/28 07:27:40;;;;;;;;;;;3.40;90.50;;;;;;5046938;28;19937;-71
2023/03/28 07:30:07;;;;;;;;;;;3.50;90.60;;;;;;5050157;28;19936;-71
2023/03/28 07:32:36;;;;;;;;;;;3.50;90.60;;;;;;5050579;28;19928;-72
2023/03/28 07:35:02;;;;;;;;;;;3.50;90.60;;;;;;5050921;28;19940;-72
2023/03/28 07:37:29;;;;;;;;;;;3.50;90.60;;;;;;5044984;28;19929;-70
2023/03/28 07:39:56;;;;;;;;;;;3.50;90.60;;;;;;5042435;28;19928;-70
2023/03/28 07:42:23;;;;;;;;;;;3.60;91.00;;;;;;5045694;28;20013;-70
2023/03/28 07:44:50;;;;;;;;;;;3.80;91.00;;;;;;5036265;28;19952;-73
2023/03/28 07:47:17;;;;;;;;;;;3.90;91.00;;;;;;5037007;28;20023;-73
2023/03/28 07:49:46;;;;;;;;;;;4.10;91.10;;;;;;5043009;28;19975;-73
2023/03/28 07:52:13;;;;;;;;;;;4.30;91.10;;;;;;5047195;28;19936;-71
2023/03/28 07:54:39;;;;;;;;;;;4.50;91.00;;;;;;5036782;28;20061;-71
2023/03/28 07:57:06;;;;;;;;;;;4.60;90.80;;;;;;5042163;28;20037;-73
2023/03/28 07:59:33;;;;;;;;;;;4.70;90.60;;;;;;5042169;28;20528;-71
2023/03/28 08:02:00;;;;;;;;;;;4.80;90.40;;;;;;5045467;28;19937;-73
2023/03/28 08:04:27;;;;;;;;;;;4.90;90.30;;;;;;5040426;28;19939;-72
2023/03/28 08:06:54;;;;;;;;;;;5.00;90.10;;;;;;5040739;28;19929;-69
2023/03/28 08:09:21;;;;;;;;;;;5.00;90.00;;;;;;5045362;28;20881;-72
2023/03/28 08:11:48;;;;;;;;;;;5.10;89.90;;;;;;5052150;28;19928;-72
2023/03/28 08:14:15;;;;;;;;;;;5.10;89.50;;;;;;5040177;28;19928;-72
2023/03/28 08:16:43;;;;;;;;;;;5.20;89.40;;;;;;5041199;28;19936;-70
2023/03/28 08:19:09;;;;;;;;;;;5.20;89.10;;;;;;5049398;28;19929;-70
2023/03/28 08:21:36;;;;;;;;;;;5.30;88.90;;;;;;5047639;28;19936;-71
2023/03/28 08:24:06;;;;;;;;;;;5.30;88.70;;;;;;5052389;28;20004;-71
2023/03/28 08:26:33;;;;;;;;;;;5.40;88.50;;;;;;5040269;28;19944;-70
2023/03/28 08:28:59;;;;;;;;;;;5.40;88.20;;;;;;5050413;28;19936;-73
2023/03/28 08:31:26;;;;;;;;;;;5.40;88.00;;;;;;5047660;28;19940;-71
2023/03/28 08:33:54;;;;;;;;;;;5.40;87.80;;;;;;5047597;28;19929;-71
2023/03/28 08:36:22;;;;;;;;;;;5.50;87.80;;;;;;5050626;28;19944;-73
2023/03/28 08:38:49;;;;;;;;;;;5.60;87.60;;;;;;5046975;28;19951;-73
2023/03/28 08:41:25;;;;;;;;;;;5.60;87.50;;;;;;5035049;28;20034;-74
2023/03/28 08:44:01;;;;;;;;;;;5.60;87.20;;;;;;5048465;28;19929;-74
2023/03/28 08:46:29;;;;;;;;;;;5.70;87.10;;;;;;5040388;28;20584;-74
2023/03/28 08:48:56;;;;;;;;;;;5.80;86.90;;;;;;5043039;28;19935;-71
2023/03/28 08:51:26;;;;;;;;;;;5.80;87.40;;;;;;5039313;28;19928;-74
2023/03/28 08:53:54;;;;;;;;;;;5.90;86.50;;;;;;5049470;28;19928;-71
2023/03/28 08:56:22;;;;;;;;;;;5.90;86.00;;;;;;5041189;28;19971;-73
2023/03/28 08:58:53;;;;;;;;;;;6.00;85.70;;;;;;5038993;28;20516;-73
2023/03/28 09:01:22;;;;;;;;;;;6.10;85.50;;;;;;5045008;28;19939;-74
2023/03/28 09:03:48;;;;;;;;;;;6.10;85.30;;;;;;5046618;28;20044;-71
2023/03/28 09:06:22;;;;;;;;;;;6.10;84.90;;;;;;5047482;28;20394;-72
2023/03/28 09:08:55;;;;;;;;;;;6.20;84.70;;;;;;5038675;28;19929;-72
2023/03/28 09:11:40;;;;;;;;;;;6.20;84.60;;;;;;5051193;28;19936;-72
2023/03/28 09:14:18;;;;;;;;;;;6.20;84.50;;;;;;5040862;28;20032;-70
2023/03/28 09:16:52;;;;;;;;;;;6.20;84.30;;;;;;5049689;28;19928;-70
2023/03/28 09:19:26;;;;;;;;;;;6.20;84.20;;;;;;5045484;28;19928;-73
2023/03/28 09:22:00;;;;;;;;;;;6.20;84.30;;;;;;5044592;28;20017;-72
2023/03/28 09:24:39;;;;;;;;;;;6.20;84.30;;;;;;5037386;28;19932;-71
2023/03/28 09:27:13;;;;;;;;;;;6.20;84.40;;;;;;5045730;28;20033;-69
2023/03/28 09:29:42;;;;;;;;;;;6.20;84.40;;;;;;5047993;28;20406;-70
2023/03/28 09:32:12;;;;;;;;;;;6.20;84.60;;;;;;5048047;28;19928;-71
2023/03/28 09:34:40;;;;;;;;;;;6.10;84.60;;;;;;5038827;28;19932;-71
2023/03/28 09:37:27;;;;;;;;;;;6.10;84.40;;;;;;5044151;28;19936;-71
2023/03/28 09:39:55;;;;;;;;;;;6.10;84.40;;;;;;5040177;28;19940;-74
2023/03/28 09:42:26;;;;;;;;;;;6.20;84.40;;;;;;5049731;28;20434;-73
2023/03/28 09:44:59;;;;;;;;;;;6.20;84.30;;;;;;5039039;28;19929;-68
2023/03/28 09:47:26;;;;;;;;;;;6.20;84.10;;;;;;5038243;28;19935;-72
2023/03/28 09:49:53;;;;;;;;;;;6.20;84.00;;;;;;5038025;28;19928;-69
2023/03/28 09:52:20;;;;;;;;;;;6.20;83.90;;;;;;5043777;28;19928;-74
2023/03/28 09:54:46;;;;;;;;;;;6.20;83.90;;;;;;5041426;28;21098;-72
2023/03/28 09:57:13;;;;;;;;;;;6.30;83.30;;;;;;5037842;28;19936;-72
2023/03/28 09:59:41;;;;;;;;;;;6.30;83.20;;;;;;5039327;28;20335;-70
2023/03/28 10:02:24;;;;;;;;;;;6.30;83.00;;;;;;5042547;28;19939;-72
2023/03/28 10:04:51;;;;;;;;;;;6.40;82.90;;;;;;5042936;28;19936;-71
2023/03/28 10:07:28;;;;;;;;;;;6.50;82.70;;;;;;5041915;28;19933;-71
2023/03/28 10:09:55;;;;;;;;;;;6.50;82.60;;;;;;5040348;28;20816;-73
2023/03/28 10:12:25;;;;;;;;;;;6.40;82.40;;;;;;5042665;28;22519;-72
2023/03/28 10:14:52;;;;;;;;;;;6.50;82.40;;;;;;5043831;28;19929;-72
2023/03/28 10:17:25;;;;;;;;;;;6.50;82.30;;;;;;5044818;28;19995;-73
2023/03/28 10:19:53;;;;;;;;;;;6.60;81.90;;;;;;5045920;28;19936;-73
2023/03/28 10:22:21;;;;;;;;;;;6.60;81.20;;;;;;5045299;28;19937;-72
2023/03/28 10:24:48;;;;;;;;;;;6.70;81.30;;;;;;5041596;28;19932;-73
2023/03/28 10:27:16;;;;;;;;;;;6.80;80.30;;;;;;5043625;28;19925;-72
2023/03/28 10:29:43;;;;;;;;;;;6.90;80.10;;;;;;5043703;28;19929;-73
2023/03/28 10:32:13;;;;;;;;;;;7.00;80.30;;;;;;5047010;28;20414;-68
2023/03/28 10:34:40;;;;;;;;;;;7.10;80.20;;;;;;5042511;28;19928;-72
2023/03/28 10:37:21;;;;;;;;;;;7.10;78.10;;;;;;5047733;28;20434;-72
2023/03/28 10:39:57;;;;;;;;;;;7.20;77.40;;;;;;5041773;28;21337;-74
2023/03/28 10:42:24;;;;;;;;;;;7.30;77.90;;;;;;5041796;28;19936;-70
2023/03/28 10:44:58;;;;;;;;;;;7.30;77.20;;;;;;5042774;28;19929;-71
2023/03/28 10:47:26;;;;;;;;;;;7.40;75.50;;;;;;5042809;28;19940;-73
2023/03/28 10:49:53;;;;;;;;;;;7.40;75.70;;;;;;5045236;28;19940;-75
2023/03/28 10:52:23;;;;;;;;;;;7.50;75.70;;;;;;5042666;28;19925;-70
2023/03/28 10:54:56;;;;;;;;;;;7.60;76.20;;;;;;5044417;28;19932;-72
2023/03/28 10:57:26;;;;;;;;;;;7.70;75.50;;;;;;5041230;28;19944;-73
2023/03/28 10:59:57;;;;;;;;;;;7.70;74.40;;;;;;5038324;28;19936;-72
2023/03/28 11:02:32;;;;;;;;;;;7.90;74.70;;;;;;5045341;28;19936;-74
2023/03/28 11:05:01;;;;;;;;;;;7.90;75.10;;;;;;5047853;28;20670;-69
2023/03/28 11:07:31;;;;;;;;;;;7.90;75.60;;;;;;5037044;28;19929;-74
2023/03/28 11:10:02;;;;;;;;;;;8.00;75.60;;;;;;5038771;28;20581;-73
2023/03/28 11:12:34;;;;;;;;;;;8.10;75.70;;;;;;5049794;28;19971;-72
2023/03/28 11:15:05;;;;;;;;;;;8.10;75.80;;;;;;5039224;28;19936;-70
2023/03/28 11:17:40;;;;;;;;;;;8.20;76.00;;;;;;5043142;28;19929;-75
2023/03/28 11:20:16;;;;;;;;;;;8.20;75.40;;;;;;5043238;28;20023;-73
2023/03/28 11:22:48;;;;;;;;;;;8.30;75.50;;;;;;5042979;28;19932;-73
2023/03/28 11:25:19;;;;;;;;;;;8.30;73.80;;;;;;5037605;28;20398;-73
2023/03/28 11:27:51;;;;;;;;;;;8.30;74.20;;;;;;5047032;28;19968;-73
2023/03/28 11:30:20;;;;;;;;;;;8.40;73.80;;;;;;5040247;28;19936;-74
2023/03/28 11:32:50;;;;;;;;;;;8.50;74.00;;;;;;5034904;28;20434;-74
2023/03/28 11:35:20;;;;;;;;;;;8.50;72.60;;;;;;5043416;28;19944;-73
2023/03/28 11:37:59;;;;;;;;;;;8.60;72.10;;;;;;5042578;28;20032;-72
2023/03/28 11:40:28;;;;;;;;;;;8.60;72.30;;;;;;5046315;28;19935;-74
2023/03/28 11:42:56;;;;;;;;;;;8.70;73.00;;;;;;5047657;28;19929;-70
2023/03/28 11:45:26;;;;;;;;;;;8.70;72.90;;;;;;5049820;28;20027;-70
2023/03/28 11:48:04;;;;;;;;;;;8.70;72.90;;;;;;5033511;28;19983;-70
2023/03/28 11:50:32;;;;;;;;;;;8.80;73.90;;;;;;5037888;28;19929;-71
2023/03/28 11:53:00;;;;;;;;;;;8.80;74.40;;;;;;5042136;28;20399;-71
2023/03/28 11:55:29;;;;;;;;;;;8.90;73.00;;;;;;5039643;28;20302;-70
2023/03/28 11:57:59;;;;;;;;;;;8.80;72.20;;;;;;5043193;28;19935;-73
2023/03/28 12:00:28;;;;;;;;;;;8.90;72.20;;;;;;5039547;28;20107;-73
2023/03/28 12:03:06;;;;;;;;;;;8.90;72.20;;;;;;5048071;28;19928;-76
2023/03/28 12:05:33;;;;;;;;;;;9.00;73.60;;;;;;5031221;28;19928;-76
2023/03/28 12:08:04;;;;;;;;;;;9.00;73.50;;;;;;5043538;28;19925;-78
2023/03/28 12:10:34;;;;;;;;;;;9.00;74.20;;;;;;5039750;28;19929;-76
2023/03/28 12:13:05;;;;;;;;;;;9.00;75.00;;;;;;5041568;28;20610;-78
2023/03/28 12:15:37;;;;;;;;;;;9.00;74.60;;;;;;5039857;28;20071;-75
2023/03/28 12:18:07;;;;;;;;;;;9.00;74.80;;;;;;5048054;28;19959;-77
2023/03/28 12:20:37;;;;;;;;;;;9.00;73.40;;;;;;5045766;28;19972;-76
2023/03/28 12:23:08;;;;;;;;;;;9.10;74.20;;;;;;5042414;28;20044;-76
2023/03/28 12:25:38;;;;;;;;;;;9.10;73.70;;;;;;5048198;28;20386;-75
2023/03/28 12:28:09;;;;;;;;;;;9.10;73.40;;;;;;5042474;28;20362;-77
2023/03/28 12:30:40;;;;;;;;;;;9.10;72.20;;;;;;5044993;28;19956;-79
2023/03/28 12:33:14;;;;;;;;;;;9.20;72.40;;;;;;5045676;28;20659;-76
2023/03/28 12:35:43;;;;;;;;;;;9.20;70.50;;;;;;5045988;28;19935;-75
2023/03/28 12:38:23;;;;;;;;;;;9.30;70.60;;;;;;5047678;28;19976;-77
2023/03/28 12:40:53;;;;;;;;;;;9.30;71.10;;;;;;5045253;28;19933;-79
2023/03/28 12:43:22;;;;;;;;;;;9.40;70.00;;;;;;5047560;28;19932;-79
2023/03/28 12:45:55;;;;;;;;;;;9.40;71.50;;;;;;5041576;28;19925;-79
2023/03/28 12:48:26;;;;;;;;;;;9.50;72.70;;;;;;5047229;28;19929;-79
2023/03/28 12:50:56;;;;;;;;;;;9.60;71.10;;;;;;5042825;28;20313;-77
2023/03/28 12:53:23;;;;;;;;;;;9.60;72.10;;;;;;5044254;28;19928;-75
2023/03/28 12:55:50;;;;;;;;;;;9.80;70.20;;;;;;5039362;28;20005;-78
2023/03/28 12:58:21;;;;;;;;;;;9.80;69.90;;;;;;5042686;28;20404;-79
2023/03/28 13:00:51;;;;;;;;;;;9.90;67.80;;;;;;5040588;28;20772;-77
2023/03/28 13:03:25;;;;;;;;;;;10.00;66.60;;;;;;5040553;28;19928;-79
2023/03/28 13:05:56;;;;;;;;;;;10.00;66.40;;;;;;5048849;28;19968;-78
2023/03/28 13:08:24;;;;;;;;;;;10.10;67.10;;;;;;5040860;28;19940;-75
2023/03/28 13:11:02;;;;;;;;;;;10.20;68.50;;;;;;5037225;28;19936;-77
2023/03/28 13:13:33;;;;;;;;;;;10.20;67.80;;;;;;5037746;28;19939;-75
2023/03/28 13:16:05;;;;;;;;;;;10.90;56.90;;;;;;5040978;28;19932;-78
2023/03/28 13:18:32;;;;;;;;;;;11.30;56.40;;;;;;5037849;28;19925;-76
2023/03/28 13:21:03;;;;;;;;;;;11.30;57.20;;;;;;5039295;28;20763;-76
2023/03/28 13:23:31;;;;;;;;;;;11.10;57.80;;;;;;5034885;28;19933;-76
2023/03/28 13:25:58;;;;;;;;;;;11.00;59.90;;;;;;5035333;28;19936;-77
2023/03/28 13:28:29;;;;;;;;;;;10.90;59.20;;;;;;5042274;28;20019;-76
2023/03/28 13:31:20;;;;;;;;;;;10.70;59.10;;;;;;5041992;28;19936;-76
2023/03/28 13:33:47;;;;;;;;;;;10.70;59.70;;;;;;5020643;28;19937;-78
2023/03/28 13:36:31;;;;;;;;;;;10.60;59.70;;;;;;5044164;28;19936;-76
2023/03/28 13:39:17;;;;;;;;;;;10.60;62.50;;;;;;5041326;28;19925;-77
2023/03/28 13:41:54;;;;;;;;;;;10.60;64.30;;;;;;5042104;28;20387;-76
2023/03/28 13:44:22;;;;;;;;;;;10.50;64.40;;;;;;5041877;28;19959;-78
2023/03/28 13:46:49;;;;;;;;;;;10.50;63.80;;;;;;5041539;28;19933;-78
2023/03/28 13:49:17;;;;;;;;;;;10.50;64.10;;;;;;5035750;28;19928;-77
2023/03/28 13:51:46;;;;;;;;;;;10.50;64.70;;;;;;5051069;28;19936;-77
2023/03/28 13:54:13;;;;;;;;;;;10.80;57.60;;;;;;5034968;28;19932;-77
2023/03/28 13:56:43;;;;;;;;;;;11.20;57.90;;;;;;5038003;28;20473;-78
2023/03/28 13:59:13;;;;;;;;;;;11.40;59.50;;;;;;5040253;28;19940;-77
2023/03/28 14:01:45;;;;;;;;;;;11.50;60.80;;;;;;5038444;28;19943;-79
2023/03/28 14:04:17;;;;;;;;;;;11.60;61.30;;;;;;5038951;28;19974;-77
2023/03/28 14:06:43;;;;;;;;;;;11.80;61.00;;;;;;5040968;28;19928;-78
2023/03/28 14:09:14;;;;;;;;;;;11.80;61.00;;;;;;5019836;28;20319;-78
2023/03/28 14:11:42;;;;;;;;;;;11.90;61.70;;;;;;5030807;28;19932;-78
2023/03/28 14:14:11;;;;;;;;;;;11.90;62.20;;;;;;5032201;28;20643;-79
2023/03/28 14:16:41;;;;;;;;;;;12.00;62.60;;;;;;5041517;28;19928;-78
2023/03/28 14:19:08;;;;;;;;;;;12.00;62.70;;;;;;5036299;28;19955;-76
2023/03/28 14:21:35;;;;;;;;;;;12.10;62.10;;;;;;5041071;28;19925;-78
2023/03/28 14:24:06;;;;;;;;;;;12.10;62.10;;;;;;5041914;28;20818;-79
2023/03/28 14:26:34;;;;;;;;;;;12.20;62.20;;;;;;5045135;28;19941;-79
2023/03/28 14:29:03;;;;;;;;;;;12.20;62.70;;;;;;5043948;28;19959;-80
2023/03/28 14:31:34;;;;;;;;;;;12.30;62.80;;;;;;5043053;28;20018;-78
2023/03/28 14:34:13;;;;;;;;;;;12.30;62.90;;;;;;5036239;28;19933;-76
2023/03/28 14:36:57;;;;;;;;;;;12.30;63.20;;;;;;5041909;28;20383;-78
2023/03/28 14:39:23;;;;;;;;;;;12.30;64.00;;;;;;5038463;28;19936;-77
2023/03/28 14:41:50;;;;;;;;;;;12.30;64.10;;;;;;5025448;28;19933;-79
2023/03/28 14:44:17;;;;;;;;;;;12.40;62.80;;;;;;5042285;28;20116;-76